createdAt,value
2017-06-30T00:00:23.207Z,5.47
2017-06-30T00:02:52.266Z,5.57
2017-06-30T00:05:21.365Z,5.13
2017-06-30T00:07:50.379Z,5.83
2017-06-30T00:10:19.474Z,5.70
2017-06-30T00:12:48.537Z,5.33
2017-06-30T00:15:17.684Z,4.97
2017-06-30T00:17:47.533Z,5.13
2017-06-30T00:20:16.607Z,5.00
2017-06-30T00:22:46.437Z,4.80
2017-06-30T00:25:15.507Z,5.13
2017-06-30T00:27:44.943Z,5.30
2017-06-30T00:30:14.020Z,5.23
2017-06-30T00:32:43.094Z,4.87
2017-06-30T00:35:12.208Z,4.80
2017-06-30T00:37:41.285Z,4.70
2017-06-30T00:40:10.340Z,4.50
2017-06-30T00:42:39.375Z,4.70
2017-06-30T00:45:09.240Z,4.33
2017-06-30T00:47:38.299Z,4.10
2017-06-30T00:50:07.397Z,4.63
2017-06-30T00:52:36.452Z,4.20
2017-06-30T00:55:05.517Z,4.23
2017-06-30T00:57:34.564Z,3.63
2017-06-30T01:00:05.013Z,3.33
2017-06-30T01:02:34.813Z,3.87
2017-06-30T01:05:04.635Z,3.57
2017-06-30T01:07:34.452Z,4.20
2017-06-30T01:10:03.515Z,4.00
2017-06-30T01:12:32.572Z,3.53
2017-06-30T01:15:01.640Z,3.47
2017-06-30T01:17:30.680Z,3.20
2017-06-30T01:19:59.798Z,3.53
2017-06-30T01:22:28.856Z,3.60
2017-06-30T01:24:57.904Z,3.20
2017-06-30T01:27:26.979Z,2.93
2017-06-30T01:29:56.052Z,3.07
2017-06-30T01:32:25.126Z,3.00
2017-06-30T01:34:54.185Z,2.77
2017-06-30T01:37:23.275Z,3.20
2017-06-30T01:39:52.320Z,2.70
2017-06-30T01:42:21.412Z,3.00
2017-06-30T01:44:50.489Z,2.77
2017-06-30T01:47:19.542Z,3.17
2017-06-30T01:49:48.589Z,2.00
2017-06-30T01:52:17.668Z,3.70
2017-06-30T01:54:46.731Z,2.90
2017-06-30T01:57:16.576Z,3.00
2017-06-30T01:59:45.615Z,2.67
2017-06-30T02:02:14.726Z,3.43
2017-06-30T02:04:43.764Z,3.40
2017-06-30T02:07:12.833Z,2.57
2017-06-30T02:09:42.220Z,3.30
2017-06-30T02:12:11.271Z,3.13
2017-06-30T02:14:40.325Z,3.00
2017-06-30T02:17:09.418Z,3.40
2017-06-30T02:19:38.464Z,3.70
2017-06-30T02:22:07.516Z,3.27
2017-06-30T02:24:36.577Z,3.70
2017-06-30T02:27:05.624Z,3.40
2017-06-30T02:29:34.724Z,3.53
2017-06-30T02:32:03.833Z,4.00
2017-06-30T02:34:32.914Z,3.67
2017-06-30T02:37:01.969Z,3.73
2017-06-30T02:39:31.004Z,3.40
2017-06-30T02:42:00.059Z,3.97
2017-06-30T02:44:29.899Z,3.60
2017-06-30T02:46:58.944Z,3.83
2017-06-30T02:49:28.012Z,3.87
2017-06-30T02:51:57.086Z,3.77
2017-06-30T02:54:26.133Z,3.77
2017-06-30T02:56:55.191Z,3.77
2017-06-30T02:59:24.268Z,3.40
2017-06-30T03:01:53.314Z,3.70
2017-06-30T03:04:22.372Z,4.20
2017-06-30T03:06:51.448Z,3.90
2017-06-30T03:09:20.515Z,4.47
2017-06-30T03:11:49.559Z,4.17
2017-06-30T03:14:18.645Z,4.07
2017-06-30T03:16:47.734Z,3.40
2017-06-30T03:19:17.071Z,4.10
2017-06-30T03:21:46.141Z,3.13
2017-06-30T03:24:15.248Z,4.47
2017-06-30T03:26:44.602Z,4.00
2017-06-30T03:29:14.455Z,4.90
2017-06-30T03:31:43.500Z,3.83
2017-06-30T03:34:13.341Z,4.47
2017-06-30T03:36:42.551Z,4.07
2017-06-30T03:39:11.605Z,4.80
2017-06-30T03:41:40.675Z,4.73
2017-06-30T03:44:09.751Z,4.53
2017-06-30T03:46:38.802Z,4.30
2017-06-30T03:49:08.636Z,4.60
2017-06-30T03:51:38.445Z,5.00
2017-06-30T03:54:07.672Z,5.07
2017-06-30T03:56:36.731Z,4.03
2017-06-30T03:59:06.588Z,3.93
2017-06-30T04:01:35.945Z,3.90
2017-06-30T04:04:05.771Z,3.80
2017-06-30T04:06:35.021Z,3.80
2017-06-30T04:09:05.625Z,3.80
2017-06-30T04:11:34.648Z,3.80
2017-06-30T04:14:03.713Z,3.60
2017-06-30T04:16:32.780Z,3.70
2017-06-30T04:19:01.823Z,4.17
2017-06-30T04:21:30.881Z,3.87
2017-06-30T04:23:59.940Z,3.50
2017-06-30T04:26:29.761Z,3.43
2017-06-30T04:28:58.847Z,2.77
2017-06-30T04:31:27.908Z,3.50
2017-06-30T04:33:56.984Z,2.70
2017-06-30T04:36:26.052Z,2.93
2017-06-30T04:38:55.123Z,2.37
2017-06-30T04:41:24.937Z,2.50
2017-06-30T04:43:54.032Z,2.40
2017-06-30T04:46:23.081Z,2.30
2017-06-30T04:48:52.121Z,2.80
2017-06-30T04:51:21.980Z,2.43
2017-06-30T04:53:51.040Z,2.13
2017-06-30T04:56:20.891Z,2.33
2017-06-30T04:58:49.952Z,1.80
2017-06-30T05:01:18.991Z,1.80
2017-06-30T05:03:48.050Z,2.20
2017-06-30T05:06:17.881Z,1.93
2017-06-30T05:08:46.913Z,1.80
2017-06-30T05:11:16.045Z,1.97
2017-06-30T05:13:45.867Z,1.73
2017-06-30T05:16:14.974Z,2.53
2017-06-30T05:18:44.033Z,2.10
2017-06-30T05:21:13.100Z,2.33
2017-06-30T05:23:42.164Z,2.20
2017-06-30T05:26:11.224Z,1.80
2017-06-30T05:28:40.251Z,2.10
2017-06-30T05:31:09.356Z,2.00
2017-06-30T05:33:38.435Z,2.03
2017-06-30T05:36:07.513Z,2.13
2017-06-30T05:38:37.316Z,2.13
2017-06-30T05:41:07.156Z,2.10
2017-06-30T05:43:36.364Z,1.80
2017-06-30T05:46:05.692Z,2.13
2017-06-30T05:48:34.776Z,1.73
2017-06-30T05:51:03.833Z,2.70
2017-06-30T05:53:32.912Z,2.20
2017-06-30T05:56:02.741Z,2.10
2017-06-30T05:58:31.812Z,3.27
2017-06-30T06:01:00.863Z,3.33
2017-06-30T06:03:29.903Z,3.00
2017-06-30T06:05:58.951Z,3.00
2017-06-30T06:08:28.019Z,3.40
2017-06-30T06:10:57.398Z,3.30
2017-06-30T06:13:26.439Z,3.40
2017-06-30T06:15:55.488Z,3.47
2017-06-30T06:18:24.590Z,3.67
2017-06-30T06:20:53.647Z,2.87
2017-06-30T06:23:22.736Z,3.73
2017-06-30T06:25:51.796Z,3.77
2017-06-30T06:28:20.866Z,4.30
2017-06-30T06:30:49.942Z,4.10
2017-06-30T06:33:18.992Z,4.87
2017-06-30T06:35:48.067Z,5.70
2017-06-30T06:38:17.876Z,5.77
2017-06-30T06:40:48.036Z,5.27
2017-06-30T06:43:17.295Z,4.87
2017-06-30T06:45:47.121Z,5.80
2017-06-30T06:48:16.177Z,5.60
2017-06-30T06:50:45.225Z,6.30
2017-06-30T06:53:14.298Z,6.00
2017-06-30T06:55:43.403Z,5.60
2017-06-30T06:58:12.486Z,5.40
2017-06-30T07:00:42.560Z,5.57
2017-06-30T07:03:11.681Z,5.23
2017-06-30T07:05:40.738Z,4.90
2017-06-30T07:08:10.163Z,4.80
2017-06-30T07:10:39.208Z,4.33
2017-06-30T07:13:08.281Z,5.80
2017-06-30T07:15:38.132Z,4.77
2017-06-30T07:18:07.204Z,5.30
2017-06-30T07:20:37.005Z,4.03
2017-06-30T07:23:06.882Z,4.80
2017-06-30T07:25:35.985Z,5.40
2017-06-30T07:28:05.051Z,5.00
2017-06-30T07:30:34.152Z,4.67
2017-06-30T07:33:03.259Z,5.17
2017-06-30T07:35:32.340Z,4.87
2017-06-30T07:38:01.404Z,5.03
2017-06-30T07:40:30.489Z,5.00
2017-06-30T07:42:59.580Z,5.57
2017-06-30T07:45:28.672Z,6.70
2017-06-30T07:47:57.714Z,5.73
2017-06-30T07:50:26.964Z,6.30
2017-06-30T07:52:56.820Z,6.67
2017-06-30T07:55:25.885Z,5.87
2017-06-30T07:57:56.628Z,5.80
2017-06-30T08:00:26.465Z,6.07
2017-06-30T08:02:55.525Z,6.40
2017-06-30T08:05:25.355Z,6.43
2017-06-30T08:07:54.444Z,5.80
2017-06-30T08:10:23.564Z,6.67
2017-06-30T08:12:52.994Z,5.70
2017-06-30T08:15:22.073Z,6.50
2017-06-30T08:17:51.117Z,6.60
2017-06-30T08:20:21.299Z,6.23
2017-06-30T08:22:50.355Z,5.47
2017-06-30T08:25:19.465Z,5.70
2017-06-30T08:27:48.543Z,6.27
2017-06-30T08:30:17.900Z,6.57
2017-06-30T08:32:46.955Z,5.40
2017-06-30T08:35:16.020Z,5.40
2017-06-30T08:37:46.505Z,5.67
2017-06-30T08:40:15.556Z,5.43
2017-06-30T08:42:44.618Z,5.30
2017-06-30T08:45:14.463Z,5.60
2017-06-30T08:47:43.584Z,5.60
2017-06-30T08:50:12.663Z,5.77
2017-06-30T08:52:41.707Z,5.57
2017-06-30T08:55:10.763Z,5.20
2017-06-30T08:57:39.844Z,4.40
2017-06-30T09:00:09.181Z,5.67
2017-06-30T09:02:38.260Z,4.30
2017-06-30T09:05:07.332Z,5.13
2017-06-30T09:07:36.672Z,3.50
2017-06-30T09:10:05.757Z,3.33
2017-06-30T09:12:34.807Z,3.13
2017-06-30T09:15:04.735Z,4.70
2017-06-30T09:17:33.796Z,3.83
2017-06-30T09:20:02.875Z,3.47
2017-06-30T09:22:31.942Z,3.47
2017-06-30T09:25:00.995Z,3.80
2017-06-30T09:27:30.837Z,3.87
2017-06-30T09:29:59.913Z,3.80
2017-06-30T09:32:28.982Z,3.37
2017-06-30T09:34:58.077Z,3.73
2017-06-30T09:37:27.126Z,3.90
2017-06-30T09:39:56.457Z,3.47
2017-06-30T09:42:25.518Z,4.07
2017-06-30T09:44:54.867Z,4.37
2017-06-30T09:47:24.152Z,3.93
2017-06-30T09:49:53.252Z,3.90
2017-06-30T09:52:22.288Z,3.83
2017-06-30T09:54:51.694Z,4.27
2017-06-30T09:57:20.733Z,3.57
2017-06-30T09:59:49.804Z,3.20
2017-06-30T10:02:18.867Z,4.03
2017-06-30T10:04:47.967Z,3.83
2017-06-30T10:07:17.044Z,3.50
2017-06-30T10:09:46.124Z,3.17
2017-06-30T10:12:15.171Z,2.90
2017-06-30T10:14:44.237Z,2.87
2017-06-30T10:17:13.308Z,3.10
2017-06-30T10:19:42.372Z,3.07
2017-06-30T10:22:11.606Z,4.30
2017-06-30T10:24:40.940Z,3.87
2017-06-30T10:27:10.027Z,3.33
2017-06-30T10:29:39.852Z,3.70
2017-06-30T10:32:09.230Z,3.03
2017-06-30T10:34:38.264Z,3.43
2017-06-30T10:37:07.301Z,3.60
2017-06-30T10:39:36.383Z,3.67
2017-06-30T10:42:06.076Z,3.03
2017-06-30T10:44:35.153Z,3.23
2017-06-30T10:47:04.275Z,3.20
2017-06-30T10:49:33.317Z,3.50
2017-06-30T10:52:03.181Z,3.10
2017-06-30T10:54:32.265Z,3.13
2017-06-30T10:57:01.312Z,3.47
2017-06-30T10:59:30.385Z,2.90
2017-06-30T11:01:59.428Z,3.63
2017-06-30T11:04:28.504Z,3.07
2017-06-30T11:06:58.335Z,3.10
2017-06-30T11:09:28.151Z,3.13
2017-06-30T11:14:35.401Z,3.07
2017-06-30T11:17:04.464Z,2.70
2017-06-30T11:19:33.509Z,2.80
2017-06-30T11:22:02.587Z,2.40
2017-06-30T11:24:31.913Z,3.00
2017-06-30T11:27:00.964Z,2.50
2017-06-30T11:29:30.024Z,2.50
2017-06-30T11:31:59.108Z,2.90
2017-06-30T11:34:28.155Z,2.37
2017-06-30T11:36:57.194Z,2.30
2017-06-30T11:39:27.040Z,2.30
2017-06-30T11:41:56.132Z,2.10
2017-06-30T11:44:25.231Z,2.57
2017-06-30T11:46:55.037Z,2.50
2017-06-30T11:49:24.104Z,1.87
2017-06-30T11:51:53.948Z,1.70
2017-06-30T11:54:23.026Z,2.20
2017-06-30T11:56:52.105Z,1.90
2017-06-30T11:59:21.934Z,2.00
2017-06-30T12:01:51.009Z,2.70
2017-06-30T12:04:21.092Z,1.90
2017-06-30T12:06:50.166Z,2.03
2017-06-30T12:09:19.245Z,2.00
2017-06-30T12:11:49.174Z,2.53
2017-06-30T12:14:18.248Z,2.13
2017-06-30T12:16:48.063Z,1.80
2017-06-30T12:19:17.159Z,1.93
2017-06-30T12:21:46.979Z,2.10
2017-06-30T12:24:16.068Z,1.87
2017-06-30T12:26:45.151Z,2.10
2017-06-30T12:29:14.998Z,2.20
2017-06-30T12:31:44.103Z,1.90
2017-06-30T12:34:13.152Z,1.83
2017-06-30T12:36:43.014Z,1.90
2017-06-30T12:39:12.082Z,1.90
2017-06-30T12:41:41.893Z,1.90
2017-06-30T12:44:11.014Z,2.37
2017-06-30T12:46:40.085Z,1.90
2017-06-30T12:49:09.144Z,2.17
2017-06-30T12:51:38.226Z,1.90
2017-06-30T12:54:07.308Z,1.50
2017-06-30T12:56:36.583Z,1.47
2017-06-30T12:59:05.720Z,1.87
2017-06-30T13:01:34.797Z,1.90
2017-06-30T13:04:04.764Z,1.40
2017-06-30T13:06:33.829Z,2.00
2017-06-30T13:09:03.093Z,1.70
2017-06-30T13:11:32.154Z,1.53
2017-06-30T13:14:02.297Z,1.60
2017-06-30T13:16:31.356Z,1.80
2017-06-30T13:19:01.180Z,1.93
2017-06-30T13:21:30.249Z,1.97
2017-06-30T13:23:59.284Z,1.70
2017-06-30T13:26:28.356Z,1.70
2017-06-30T13:28:58.189Z,1.80
2017-06-30T13:31:27.271Z,2.20
2017-06-30T13:33:56.321Z,1.73
2017-06-30T13:36:25.403Z,1.73
2017-06-30T13:38:54.502Z,1.90
2017-06-30T13:41:23.548Z,1.70
2017-06-30T13:43:53.380Z,1.73
2017-06-30T13:46:22.448Z,2.00
2017-06-30T13:48:52.296Z,1.80
2017-06-30T13:51:21.582Z,2.00
2017-06-30T13:53:50.715Z,1.40
2017-06-30T13:56:19.813Z,1.57
2017-06-30T13:58:48.932Z,2.20
2017-06-30T14:01:18.112Z,2.00
2017-06-30T14:03:47.188Z,1.60
2017-06-30T14:06:16.245Z,1.40
2017-06-30T14:08:46.084Z,2.00
2017-06-30T14:11:15.128Z,1.40
2017-06-30T14:13:44.216Z,1.30
2017-06-30T14:16:13.256Z,1.37
2017-06-30T14:18:42.356Z,1.20
2017-06-30T14:21:11.886Z,1.20
2017-06-30T14:23:40.942Z,1.70
2017-06-30T14:26:10.044Z,1.50
2017-06-30T14:28:39.104Z,2.30
2017-06-30T14:31:08.169Z,1.67
2017-06-30T14:33:37.258Z,1.70
2017-06-30T14:36:06.306Z,1.77
2017-06-30T14:38:36.124Z,1.80
2017-06-30T14:41:05.293Z,1.80
2017-06-30T14:43:34.354Z,2.07
2017-06-30T14:46:03.445Z,1.90
2017-06-30T14:48:32.508Z,1.83
2017-06-30T14:51:01.551Z,1.60
2017-06-30T14:53:30.597Z,1.63
2017-06-30T14:56:00.417Z,1.90
2017-06-30T14:58:29.512Z,1.60
2017-06-30T15:00:58.546Z,2.00
2017-06-30T15:03:27.607Z,1.63
2017-06-30T15:05:56.675Z,1.80
2017-06-30T15:08:26.515Z,1.63
2017-06-30T15:10:56.325Z,1.63
2017-06-30T15:13:25.386Z,1.47
2017-06-30T15:15:54.456Z,1.63
2017-06-30T15:18:23.507Z,1.73
2017-06-30T15:20:52.591Z,1.50
2017-06-30T15:23:22.433Z,1.40
2017-06-30T15:25:51.488Z,1.57
2017-06-30T15:28:21.359Z,1.43
2017-06-30T15:30:50.432Z,1.43
2017-06-30T15:33:19.498Z,2.00
2017-06-30T15:35:49.328Z,1.60
2017-06-30T15:38:18.408Z,1.80
2017-06-30T15:40:48.254Z,1.60
2017-06-30T15:43:17.345Z,2.00
2017-06-30T15:45:46.404Z,1.60
2017-06-30T15:48:15.461Z,1.30
2017-06-30T15:50:45.002Z,1.60
2017-06-30T15:53:14.047Z,1.80
2017-06-30T15:55:43.142Z,1.30
2017-06-30T15:58:12.231Z,1.50
2017-06-30T16:00:41.329Z,1.60
2017-06-30T16:03:10.372Z,1.80
2017-06-30T16:05:39.417Z,1.63
2017-06-30T16:08:08.515Z,1.67
2017-06-30T16:10:37.576Z,1.30
2017-06-30T16:13:07.676Z,1.77
2017-06-30T16:15:36.719Z,1.70
2017-06-30T16:18:05.825Z,2.07
2017-06-30T16:20:34.888Z,1.40
2017-06-30T16:23:03.974Z,1.57
2017-06-30T16:25:33.061Z,1.70
2017-06-30T16:28:02.131Z,1.60
2017-06-30T16:30:31.183Z,1.40
2017-06-30T16:33:01.000Z,1.33
2017-06-30T16:35:30.056Z,1.40
2017-06-30T16:37:59.124Z,1.30
2017-06-30T16:40:28.162Z,1.50
2017-06-30T16:42:58.071Z,1.93
2017-06-30T16:45:27.140Z,1.53
2017-06-30T16:47:56.230Z,1.53
2017-06-30T16:50:25.291Z,1.47
2017-06-30T16:52:54.368Z,1.10
2017-06-30T16:55:23.731Z,1.50
2017-06-30T16:57:52.820Z,1.43
2017-06-30T17:00:21.937Z,1.20
2017-06-30T17:02:51.017Z,1.43
2017-06-30T17:05:20.101Z,1.40
2017-06-30T17:07:49.168Z,1.10
2017-06-30T17:10:18.278Z,1.10
2017-06-30T17:12:47.300Z,1.37
2017-06-30T17:15:17.156Z,1.40
2017-06-30T17:17:46.236Z,1.30
2017-06-30T17:20:16.064Z,1.40
2017-06-30T17:22:45.152Z,1.40
2017-06-30T17:25:14.211Z,1.10
2017-06-30T17:27:43.296Z,1.40
2017-06-30T17:30:12.756Z,1.57
2017-06-30T17:32:42.568Z,0.93
2017-06-30T17:35:11.638Z,1.50
2017-06-30T17:37:41.439Z,0.87
2017-06-30T17:40:11.312Z,1.70
2017-06-30T17:42:40.382Z,1.23
2017-06-30T17:45:09.494Z,1.50
2017-06-30T17:47:38.529Z,1.00
2017-06-30T17:50:07.608Z,1.10
2017-06-30T17:52:36.660Z,1.07
2017-06-30T17:55:05.762Z,1.00
2017-06-30T17:57:34.952Z,1.23
2017-06-30T18:00:04.016Z,1.27
2017-06-30T18:02:33.876Z,1.10
2017-06-30T18:05:02.993Z,0.90
2017-06-30T18:07:32.015Z,1.20
2017-06-30T18:10:01.081Z,1.00
2017-06-30T18:12:30.160Z,0.87
2017-06-30T18:14:59.256Z,1.10
2017-06-30T18:17:28.313Z,1.00
2017-06-30T18:19:58.141Z,1.20
2017-06-30T18:22:27.184Z,1.00
2017-06-30T18:24:56.277Z,1.10
2017-06-30T18:27:25.315Z,1.00
2017-06-30T18:29:55.337Z,1.20
2017-06-30T18:32:25.173Z,1.00
2017-06-30T18:34:54.225Z,0.87
2017-06-30T18:37:24.075Z,0.90
2017-06-30T18:39:53.162Z,0.83
2017-06-30T18:42:22.992Z,1.00
2017-06-30T18:44:52.047Z,1.00
2017-06-30T18:47:21.855Z,0.90
2017-06-30T18:49:50.935Z,0.90
2017-06-30T18:52:20.032Z,0.93
2017-06-30T18:54:49.087Z,1.20
2017-06-30T18:57:18.177Z,1.20
2017-06-30T18:59:47.255Z,1.10
2017-06-30T19:02:16.291Z,3.80
2017-06-30T19:04:45.701Z,5.77
2017-06-30T19:07:14.796Z,7.03
2017-06-30T19:09:43.840Z,8.50
2017-06-30T19:12:12.978Z,8.33
2017-06-30T19:14:42.057Z,9.20
2017-06-30T19:17:11.127Z,8.13
2017-06-30T19:19:41.038Z,9.97
2017-06-30T19:22:10.155Z,10.33
2017-06-30T19:24:39.986Z,11.43
2017-06-30T19:27:09.097Z,13.83
2017-06-30T19:29:38.172Z,12.80
2017-06-30T19:32:07.243Z,14.57
2017-06-30T19:34:37.085Z,11.50
2017-06-30T19:37:06.149Z,12.57
2017-06-30T19:39:35.236Z,12.37
2017-06-30T19:42:05.210Z,13.23
2017-06-30T19:44:34.272Z,12.47
2017-06-30T19:47:03.382Z,11.97
2017-06-30T19:49:32.453Z,12.00
2017-06-30T19:52:01.506Z,12.80
2017-06-30T19:54:30.881Z,13.40
2017-06-30T19:57:00.145Z,13.37
2017-06-30T19:59:29.208Z,13.90
2017-06-30T20:01:59.036Z,13.93
2017-06-30T20:04:28.104Z,12.87
2017-06-30T20:06:57.173Z,14.13
2017-06-30T20:09:26.264Z,13.27
2017-06-30T20:11:55.332Z,12.87
2017-06-30T20:14:24.407Z,14.10
2017-06-30T20:16:54.274Z,13.27
2017-06-30T20:19:23.335Z,13.80
2017-06-30T20:21:52.424Z,14.03
2017-06-30T20:24:21.492Z,13.43
2017-06-30T20:26:50.580Z,14.37
2017-06-30T20:29:19.633Z,14.30
2017-06-30T20:31:48.724Z,14.57
2017-06-30T20:34:17.967Z,14.40
2017-06-30T20:36:47.036Z,13.57
2017-06-30T20:39:16.732Z,14.97
2017-06-30T20:41:45.787Z,16.23
2017-06-30T20:44:16.032Z,15.70
2017-06-30T20:46:45.274Z,16.33
2017-06-30T20:49:14.329Z,15.57
2017-06-30T20:51:43.413Z,16.73
2017-06-30T20:54:12.491Z,16.00
2017-06-30T20:56:41.574Z,15.80
2017-06-30T20:59:10.665Z,15.63
2017-06-30T21:01:39.765Z,16.43
2017-06-30T21:04:08.862Z,14.80
2017-06-30T21:06:37.936Z,16.47
2017-06-30T21:09:07.032Z,15.60
2017-06-30T21:11:36.110Z,15.60
2017-06-30T21:14:05.170Z,14.83
2017-06-30T21:16:34.241Z,14.90
2017-06-30T21:19:03.316Z,15.83
2017-06-30T21:21:32.365Z,15.40
2017-06-30T21:24:01.496Z,13.93
2017-06-30T21:26:30.580Z,14.50
2017-06-30T21:28:59.664Z,13.83
2017-06-30T21:31:28.745Z,13.63
2017-06-30T21:33:58.766Z,14.90
2017-06-30T21:36:27.823Z,13.17
2017-06-30T21:38:56.904Z,14.50
2017-06-30T21:41:25.988Z,12.80
2017-06-30T21:43:55.047Z,14.20
2017-06-30T21:46:24.109Z,13.60
2017-06-30T21:48:53.980Z,13.40
2017-06-30T21:51:23.052Z,14.80
2017-06-30T21:53:52.221Z,14.63
2017-06-30T21:56:22.049Z,13.70
2017-06-30T21:58:51.142Z,15.30
2017-06-30T22:01:21.067Z,15.83
2017-06-30T22:03:50.185Z,15.67
2017-06-30T22:06:19.272Z,16.50
2017-06-30T22:08:48.351Z,15.70
2017-06-30T22:11:17.440Z,16.83
2017-06-30T22:13:46.515Z,18.10
2017-06-30T22:16:15.583Z,18.67
2017-06-30T22:18:44.654Z,20.17
2017-06-30T22:21:13.716Z,18.97
2017-06-30T22:23:42.767Z,20.30
2017-06-30T22:26:11.911Z,22.40
2017-06-30T22:28:40.955Z,22.27
2017-06-30T22:31:10.041Z,22.37
2017-06-30T22:33:39.095Z,21.20
2017-06-30T22:36:08.198Z,22.57
2017-06-30T22:38:38.023Z,21.23
2017-06-30T22:41:07.411Z,20.43
2017-06-30T22:43:36.501Z,22.30
2017-06-30T22:46:05.588Z,22.43
2017-06-30T22:48:35.463Z,20.67
2017-06-30T22:51:04.546Z,21.40
2017-06-30T22:53:33.665Z,22.63
2017-06-30T22:56:02.739Z,24.67
2017-06-30T22:58:31.820Z,22.47
2017-06-30T23:01:00.917Z,23.47
2017-06-30T23:03:29.984Z,22.43
2017-06-30T23:05:59.105Z,24.00
2017-06-30T23:08:28.194Z,24.23
2017-06-30T23:10:57.268Z,24.40
2017-06-30T23:13:26.384Z,22.90
2017-06-30T23:15:55.447Z,20.50
2017-06-30T23:18:24.526Z,22.50
2017-06-30T23:20:54.156Z,22.00
2017-06-30T23:23:23.994Z,23.17
2017-06-30T23:25:53.062Z,21.63
2017-06-30T23:28:22.150Z,21.43
2017-06-30T23:30:51.251Z,20.77
2017-06-30T23:33:20.316Z,21.23
2017-06-30T23:35:49.381Z,19.50
2017-06-30T23:38:18.473Z,20.20
2017-06-30T23:40:47.533Z,20.13
2017-06-30T23:43:17.380Z,21.10
2017-06-30T23:45:46.449Z,21.50
2017-06-30T23:48:15.536Z,19.90
2017-06-30T23:50:44.575Z,19.93
2017-06-30T23:53:13.680Z,20.60
2017-06-30T23:55:42.779Z,19.13
2017-06-30T23:58:11.858Z,19.30
